sensor_id;sensor_type;location;lat;lon;timestamp;temperature;humidity
13585;DHT22;6863;48.402;9.994;2023-08-21T00:01:59;24.10;99.90
13585;DHT22;6863;48.402;9.994;2023-08-21T00:04:25;24.00;99.90
13585;DHT22;6863;48.402;9.994;2023-08-21T00:06:50;24.10;99.90
13585;DHT22;6863;48.402;9.994;2023-08-21T00:09:16;24.00;99.90
13585;DHT22;6863;48.402;9.994;2023-08-21T00:11:41;24.00;99.90
13585;DHT22;6863;48.402;9.994;2023-08-21T00:14:07;23.90;99.90
13585;DHT22;6863;48.402;9.994;2023-08-21T00:16:32;23.80;99.90
13585;DHT22;6863;48.402;9.994;2023-08-21T00:18:58;23.80;99.90
13585;DHT22;6863;48.402;9.994;2023-08-21T00:21:24;23.80;99.90
13585;DHT22;6863;48.402;9.994;2023-08-21T00:23:49;23.80;99.90
13585;DHT22;6863;48.402;9.994;2023-08-21T00:26:15;23.80;99.90
13585;DHT22;6863;48.402;9.994;2023-08-21T00:28:40;23.80;99.90
13585;DHT22;6863;48.402;9.994;2023-08-21T00:31:06;23.80;99.90
13585;DHT22;6863;48.402;9.994;2023-08-21T00:33:32;23.80;99.90
13585;DHT22;6863;48.402;9.994;2023-08-21T00:35:58;23.80;99.90
13585;DHT22;6863;48.402;9.994;2023-08-21T00:38:24;23.90;99.90
13585;DHT22;6863;48.402;9.994;2023-08-21T00:40:51;23.80;99.90
13585;DHT22;6863;48.402;9.994;2023-08-21T00:43:16;23.70;99.90
13585;DHT22;6863;48.402;9.994;2023-08-21T00:45:44;23.80;99.90
13585;DHT22;6863;48.402;9.994;2023-08-21T00:48:10;23.80;99.90
13585;DHT22;6863;48.402;9.994;2023-08-21T00:50:37;23.70;99.90
13585;DHT22;6863;48.402;9.994;2023-08-21T00:53:03;23.70;99.90
13585;DHT22;6863;48.402;9.994;2023-08-21T00:55:30;23.70;99.90
13585;DHT22;6863;48.402;9.994;2023-08-21T00:57:56;23.70;99.90
13585;DHT22;6863;48.402;9.994;2023-08-21T01:00:23;23.70;99.90
13585;DHT22;6863;48.402;9.994;2023-08-21T01:02:49;23.70;99.90
13585;DHT22;6863;48.402;9.994;2023-08-21T01:05:14;23.60;99.90
13585;DHT22;6863;48.402;9.994;2023-08-21T01:07:52;23.50;99.90
13585;DHT22;6863;48.402;9.994;2023-08-21T01:10:26;23.50;99.90
13585;DHT22;6863;48.402;9.994;2023-08-21T01:13:19;23.50;99.90
13585;DHT22;6863;48.402;9.994;2023-08-21T01:15:50;23.50;99.90
13585;DHT22;6863;48.402;9.994;2023-08-21T01:18:16;23.40;99.90
13585;DHT22;6863;48.402;9.994;2023-08-21T01:20:42;23.50;99.90
13585;DHT22;6863;48.402;9.994;2023-08-21T01:23:08;23.60;99.90
13585;DHT22;6863;48.402;9.994;2023-08-21T01:25:34;23.60;99.90
13585;DHT22;6863;48.402;9.994;2023-08-21T01:27:59;23.50;99.90
13585;DHT22;6863;48.402;9.994;2023-08-21T01:30:27;23.50;99.90
13585;DHT22;6863;48.402;9.994;2023-08-21T01:33:06;23.30;99.90
13585;DHT22;6863;48.402;9.994;2023-08-21T01:35:33;23.20;99.90
13585;DHT22;6863;48.402;9.994;2023-08-21T01:38:00;23.20;99.90
13585;DHT22;6863;48.402;9.994;2023-08-21T01:40:26;23.20;99.90
13585;DHT22;6863;48.402;9.994;2023-08-21T01:42:55;23.10;99.90
13585;DHT22;6863;48.402;9.994;2023-08-21T01:45:21;23.20;99.90
13585;DHT22;6863;48.402;9.994;2023-08-21T01:47:47;23.20;99.90
13585;DHT22;6863;48.402;9.994;2023-08-21T01:50:12;23.30;99.90
13585;DHT22;6863;48.402;9.994;2023-08-21T01:52:38;23.20;99.90
13585;DHT22;6863;48.402;9.994;2023-08-21T01:55:04;23.20;99.90
13585;DHT22;6863;48.402;9.994;2023-08-21T01:57:46;23.20;99.90
13585;DHT22;6863;48.402;9.994;2023-08-21T02:00:12;23.10;99.90
13585;DHT22;6863;48.402;9.994;2023-08-21T02:02:38;23.10;99.90
13585;DHT22;6863;48.402;9.994;2023-08-21T02:05:04;23.00;99.90
13585;DHT22;6863;48.402;9.994;2023-08-21T02:07:30;22.90;99.90
13585;DHT22;6863;48.402;9.994;2023-08-21T02:09:55;22.90;99.90
13585;DHT22;6863;48.402;9.994;2023-08-21T02:12:21;22.80;99.90
13585;DHT22;6863;48.402;9.994;2023-08-21T02:14:46;22.80;99.90
13585;DHT22;6863;48.402;9.994;2023-08-21T02:17:12;22.80;99.90
13585;DHT22;6863;48.402;9.994;2023-08-21T02:19:38;22.70;99.90
13585;DHT22;6863;48.402;9.994;2023-08-21T02:22:03;22.70;99.90
13585;DHT22;6863;48.402;9.994;2023-08-21T02:24:29;22.70;99.90
13585;DHT22;6863;48.402;9.994;2023-08-21T02:26:54;22.70;99.90
13585;DHT22;6863;48.402;9.994;2023-08-21T02:29:20;22.70;99.90
13585;DHT22;6863;48.402;9.994;2023-08-21T02:31:46;22.70;99.90
13585;DHT22;6863;48.402;9.994;2023-08-21T02:34:11;22.70;99.90
13585;DHT22;6863;48.402;9.994;2023-08-21T02:36:37;22.70;99.90
13585;DHT22;6863;48.402;9.994;2023-08-21T02:39:03;22.70;99.90
13585;DHT22;6863;48.402;9.994;2023-08-21T02:41:29;22.70;99.90
13585;DHT22;6863;48.402;9.994;2023-08-21T02:43:54;22.70;99.90
13585;DHT22;6863;48.402;9.994;2023-08-21T02:46:20;22.80;99.90
13585;DHT22;6863;48.402;9.994;2023-08-21T02:48:45;22.90;99.90
13585;DHT22;6863;48.402;9.994;2023-08-21T02:51:11;23.00;99.90
13585;DHT22;6863;48.402;9.994;2023-08-21T02:53:37;23.20;99.90
13585;DHT22;6863;48.402;9.994;2023-08-21T02:56:02;23.20;99.90
13585;DHT22;6863;48.402;9.994;2023-08-21T02:58:28;23.20;99.90
13585;DHT22;6863;48.402;9.994;2023-08-21T03:00:53;23.10;99.90
13585;DHT22;6863;48.402;9.994;2023-08-21T03:03:19;23.10;99.90
13585;DHT22;6863;48.402;9.994;2023-08-21T03:05:44;23.10;99.90
13585;DHT22;6863;48.402;9.994;2023-08-21T03:08:10;23.10;99.90
13585;DHT22;6863;48.402;9.994;2023-08-21T03:10:36;22.90;99.90
13585;DHT22;6863;48.402;9.994;2023-08-21T03:13:02;22.90;99.90
13585;DHT22;6863;48.402;9.994;2023-08-21T03:15:28;22.80;99.90
13585;DHT22;6863;48.402;9.994;2023-08-21T03:17:54;22.80;99.90
13585;DHT22;6863;48.402;9.994;2023-08-21T03:20:20;22.70;99.90
13585;DHT22;6863;48.402;9.994;2023-08-21T03:22:46;22.70;99.90
13585;DHT22;6863;48.402;9.994;2023-08-21T03:25:12;22.60;99.90
13585;DHT22;6863;48.402;9.994;2023-08-21T03:27:38;22.50;99.90
13585;DHT22;6863;48.402;9.994;2023-08-21T03:30:05;22.60;99.90
13585;DHT22;6863;48.402;9.994;2023-08-21T03:32:32;22.50;99.90
13585;DHT22;6863;48.402;9.994;2023-08-21T03:34:58;22.60;99.90
13585;DHT22;6863;48.402;9.994;2023-08-21T03:37:23;22.60;99.90
13585;DHT22;6863;48.402;9.994;2023-08-21T03:39:49;22.60;99.90
13585;DHT22;6863;48.402;9.994;2023-08-21T03:42:14;22.70;99.90
13585;DHT22;6863;48.402;9.994;2023-08-21T03:44:40;22.60;99.90
13585;DHT22;6863;48.402;9.994;2023-08-21T03:47:06;22.60;99.90
13585;DHT22;6863;48.402;9.994;2023-08-21T03:49:31;22.50;99.90
13585;DHT22;6863;48.402;9.994;2023-08-21T03:51:57;22.50;99.90
13585;DHT22;6863;48.402;9.994;2023-08-21T03:54:22;22.40;99.90
13585;DHT22;6863;48.402;9.994;2023-08-21T03:56:48;22.40;99.90
13585;DHT22;6863;48.402;9.994;2023-08-21T03:59:13;22.50;99.90
13585;DHT22;6863;48.402;9.994;2023-08-21T04:01:39;22.60;99.90
13585;DHT22;6863;48.402;9.994;2023-08-21T04:04:04;22.60;99.90
13585;DHT22;6863;48.402;9.994;2023-08-21T04:06:30;22.60;99.90
13585;DHT22;6863;48.402;9.994;2023-08-21T04:08:56;22.40;99.90
13585;DHT22;6863;48.402;9.994;2023-08-21T04:11:21;22.30;99.90
13585;DHT22;6863;48.402;9.994;2023-08-21T04:13:47;22.30;99.90
13585;DHT22;6863;48.402;9.994;2023-08-21T04:16:12;22.30;99.90
13585;DHT22;6863;48.402;9.994;2023-08-21T04:18:38;22.40;99.90
13585;DHT22;6863;48.402;9.994;2023-08-21T04:21:04;22.20;99.90
13585;DHT22;6863;48.402;9.994;2023-08-21T04:23:30;22.10;99.90
13585;DHT22;6863;48.402;9.994;2023-08-21T04:26:02;22.00;99.90
13585;DHT22;6863;48.402;9.994;2023-08-21T04:28:30;22.00;99.90
13585;DHT22;6863;48.402;9.994;2023-08-21T04:30:56;22.00;99.90
13585;DHT22;6863;48.402;9.994;2023-08-21T04:33:27;21.90;99.90
13585;DHT22;6863;48.402;9.994;2023-08-21T04:35:59;21.90;99.90
13585;DHT22;6863;48.402;9.994;2023-08-21T04:38:25;21.80;99.90
13585;DHT22;6863;48.402;9.994;2023-08-21T04:40:50;21.80;99.90
13585;DHT22;6863;48.402;9.994;2023-08-21T04:43:16;21.70;99.90
13585;DHT22;6863;48.402;9.994;2023-08-21T04:45:49;21.70;99.90
13585;DHT22;6863;48.402;9.994;2023-08-21T04:48:21;21.60;99.90
13585;DHT22;6863;48.402;9.994;2023-08-21T04:50:46;21.60;99.90
13585;DHT22;6863;48.402;9.994;2023-08-21T04:53:12;21.60;99.90
13585;DHT22;6863;48.402;9.994;2023-08-21T04:55:40;21.60;99.90
13585;DHT22;6863;48.402;9.994;2023-08-21T04:58:06;21.60;99.90
13585;DHT22;6863;48.402;9.994;2023-08-21T05:00:32;21.50;99.90
13585;DHT22;6863;48.402;9.994;2023-08-21T05:02:58;21.50;99.90
13585;DHT22;6863;48.402;9.994;2023-08-21T05:05:23;21.50;99.90
13585;DHT22;6863;48.402;9.994;2023-08-21T05:07:49;21.50;99.90
13585;DHT22;6863;48.402;9.994;2023-08-21T05:10:15;21.60;99.90
13585;DHT22;6863;48.402;9.994;2023-08-21T05:12:41;21.60;99.90
13585;DHT22;6863;48.402;9.994;2023-08-21T05:15:07;21.70;99.90
13585;DHT22;6863;48.402;9.994;2023-08-21T05:17:32;21.90;99.90
13585;DHT22;6863;48.402;9.994;2023-08-21T05:19:58;21.90;99.90
13585;DHT22;6863;48.402;9.994;2023-08-21T05:22:23;22.00;99.90
13585;DHT22;6863;48.402;9.994;2023-08-21T05:24:49;22.00;99.90
13585;DHT22;6863;48.402;9.994;2023-08-21T05:27:15;22.00;99.90
13585;DHT22;6863;48.402;9.994;2023-08-21T05:29:40;22.20;99.90
13585;DHT22;6863;48.402;9.994;2023-08-21T05:32:06;22.20;99.90
13585;DHT22;6863;48.402;9.994;2023-08-21T05:34:31;22.20;99.90
13585;DHT22;6863;48.402;9.994;2023-08-21T05:36:57;22.20;99.90
13585;DHT22;6863;48.402;9.994;2023-08-21T05:39:23;22.30;99.90
13585;DHT22;6863;48.402;9.994;2023-08-21T05:41:48;22.40;99.90
13585;DHT22;6863;48.402;9.994;2023-08-21T05:44:14;22.40;99.90
13585;DHT22;6863;48.402;9.994;2023-08-21T05:46:40;22.40;99.90
13585;DHT22;6863;48.402;9.994;2023-08-21T05:49:05;22.40;99.90
13585;DHT22;6863;48.402;9.994;2023-08-21T05:51:34;22.50;99.90
13585;DHT22;6863;48.402;9.994;2023-08-21T05:53:59;22.60;99.90
13585;DHT22;6863;48.402;9.994;2023-08-21T05:56:25;22.80;99.90
13585;DHT22;6863;48.402;9.994;2023-08-21T05:58:54;22.90;99.90
13585;DHT22;6863;48.402;9.994;2023-08-21T06:01:19;23.10;99.90
13585;DHT22;6863;48.402;9.994;2023-08-21T06:03:45;23.20;99.90
13585;DHT22;6863;48.402;9.994;2023-08-21T06:06:10;23.40;99.90
13585;DHT22;6863;48.402;9.994;2023-08-21T06:08:36;23.50;99.90
13585;DHT22;6863;48.402;9.994;2023-08-21T06:11:02;23.70;99.90
13585;DHT22;6863;48.402;9.994;2023-08-21T06:13:28;23.90;99.90
13585;DHT22;6863;48.402;9.994;2023-08-21T06:15:54;24.10;99.90
13585;DHT22;6863;48.402;9.994;2023-08-21T06:18:20;24.20;99.90
13585;DHT22;6863;48.402;9.994;2023-08-21T06:20:45;24.30;99.90
13585;DHT22;6863;48.402;9.994;2023-08-21T06:23:11;24.40;99.90
13585;DHT22;6863;48.402;9.994;2023-08-21T06:25:37;24.60;99.90
13585;DHT22;6863;48.402;9.994;2023-08-21T06:28:04;24.90;99.90
13585;DHT22;6863;48.402;9.994;2023-08-21T06:30:29;25.10;99.90
13585;DHT22;6863;48.402;9.994;2023-08-21T06:32:55;25.20;99.90
13585;DHT22;6863;48.402;9.994;2023-08-21T06:35:21;25.40;99.90
13585;DHT22;6863;48.402;9.994;2023-08-21T06:37:47;25.50;99.90
13585;DHT22;6863;48.402;9.994;2023-08-21T06:40:13;25.70;99.90
13585;DHT22;6863;48.402;9.994;2023-08-21T06:42:38;25.80;99.90
13585;DHT22;6863;48.402;9.994;2023-08-21T06:45:05;25.90;99.90
13585;DHT22;6863;48.402;9.994;2023-08-21T06:47:31;26.10;99.80
13585;DHT22;6863;48.402;9.994;2023-08-21T06:49:56;26.20;99.60
13585;DHT22;6863;48.402;9.994;2023-08-21T06:52:22;26.40;99.40
13585;DHT22;6863;48.402;9.994;2023-08-21T06:54:48;26.70;98.90
13585;DHT22;6863;48.402;9.994;2023-08-21T06:57:13;26.90;98.60
13585;DHT22;6863;48.402;9.994;2023-08-21T06:59:39;27.10;98.20
13585;DHT22;6863;48.402;9.994;2023-08-21T07:02:05;27.30;97.90
13585;DHT22;6863;48.402;9.994;2023-08-21T07:04:31;27.40;97.50
13585;DHT22;6863;48.402;9.994;2023-08-21T07:06:59;27.30;97.40
13585;DHT22;6863;48.402;9.994;2023-08-21T07:09:24;27.50;97.20
13585;DHT22;6863;48.402;9.994;2023-08-21T07:11:50;27.80;96.70
13585;DHT22;6863;48.402;9.994;2023-08-21T07:14:15;28.20;96.10
13585;DHT22;6863;48.402;9.994;2023-08-21T07:16:42;28.50;95.30
13585;DHT22;6863;48.402;9.994;2023-08-21T07:19:08;28.70;94.90
13585;DHT22;6863;48.402;9.994;2023-08-21T07:21:34;28.80;94.50
13585;DHT22;6863;48.402;9.994;2023-08-21T07:24:03;29.10;94.10
13585;DHT22;6863;48.402;9.994;2023-08-21T07:26:29;29.40;93.50
13585;DHT22;6863;48.402;9.994;2023-08-21T07:28:54;29.30;93.60
13585;DHT22;6863;48.402;9.994;2023-08-21T07:31:20;29.40;93.30
13585;DHT22;6863;48.402;9.994;2023-08-21T07:33:46;29.30;93.30
13585;DHT22;6863;48.402;9.994;2023-08-21T07:36:12;29.50;93.10
13585;DHT22;6863;48.402;9.994;2023-08-21T07:38:42;29.80;92.40
13585;DHT22;6863;48.402;9.994;2023-08-21T07:41:09;30.00;92.10
13585;DHT22;6863;48.402;9.994;2023-08-21T07:43:36;30.30;91.80
13585;DHT22;6863;48.402;9.994;2023-08-21T07:46:06;30.40;91.60
13585;DHT22;6863;48.402;9.994;2023-08-21T07:48:32;30.90;91.00
13585;DHT22;6863;48.402;9.994;2023-08-21T07:50:58;31.50;89.80
13585;DHT22;6863;48.402;9.994;2023-08-21T07:53:25;32.00;87.00
13585;DHT22;6863;48.402;9.994;2023-08-21T07:55:50;32.50;84.80
13585;DHT22;6863;48.402;9.994;2023-08-21T07:58:16;32.80;82.80
13585;DHT22;6863;48.402;9.994;2023-08-21T08:00:42;33.20;80.50
13585;DHT22;6863;48.402;9.994;2023-08-21T08:03:08;33.80;77.90
13585;DHT22;6863;48.402;9.994;2023-08-21T08:05:34;34.00;76.30
13585;DHT22;6863;48.402;9.994;2023-08-21T08:08:00;34.10;72.70
13585;DHT22;6863;48.402;9.994;2023-08-21T08:10:26;34.10;73.10
13585;DHT22;6863;48.402;9.994;2023-08-21T08:12:51;34.60;73.20
13585;DHT22;6863;48.402;9.994;2023-08-21T08:15:18;35.00;71.10
13585;DHT22;6863;48.402;9.994;2023-08-21T08:17:43;35.00;69.40
13585;DHT22;6863;48.402;9.994;2023-08-21T08:20:14;35.10;66.00
13585;DHT22;6863;48.402;9.994;2023-08-21T08:22:40;35.60;63.90
13585;DHT22;6863;48.402;9.994;2023-08-21T08:25:06;35.50;64.30
13585;DHT22;6863;48.402;9.994;2023-08-21T08:27:32;36.00;62.40
13585;DHT22;6863;48.402;9.994;2023-08-21T08:29:58;36.10;62.70
13585;DHT22;6863;48.402;9.994;2023-08-21T08:32:24;36.50;62.80
13585;DHT22;6863;48.402;9.994;2023-08-21T08:34:50;37.10;61.00
13585;DHT22;6863;48.402;9.994;2023-08-21T08:37:18;37.80;59.20
13585;DHT22;6863;48.402;9.994;2023-08-21T08:39:47;38.20;57.30
13585;DHT22;6863;48.402;9.994;2023-08-21T08:42:14;38.50;56.30
13585;DHT22;6863;48.402;9.994;2023-08-21T08:44:39;39.00;54.70
13585;DHT22;6863;48.402;9.994;2023-08-21T08:47:07;39.30;53.00
13585;DHT22;6863;48.402;9.994;2023-08-21T08:49:33;39.20;52.30
13585;DHT22;6863;48.402;9.994;2023-08-21T08:52:00;39.80;50.70
13585;DHT22;6863;48.402;9.994;2023-08-21T08:54:26;40.30;49.50
13585;DHT22;6863;48.402;9.994;2023-08-21T08:56:53;40.90;48.10
13585;DHT22;6863;48.402;9.994;2023-08-21T08:59:19;41.60;46.40
13585;DHT22;6863;48.402;9.994;2023-08-21T09:01:44;42.30;44.80
13585;DHT22;6863;48.402;9.994;2023-08-21T09:04:10;42.90;43.50
13585;DHT22;6863;48.402;9.994;2023-08-21T09:06:36;42.70;43.10
13585;DHT22;6863;48.402;9.994;2023-08-21T09:09:02;43.60;42.10
13585;DHT22;6863;48.402;9.994;2023-08-21T09:11:28;44.50;40.30
13585;DHT22;6863;48.402;9.994;2023-08-21T09:13:54;45.40;39.10
13585;DHT22;6863;48.402;9.994;2023-08-21T09:16:21;46.00;37.40
13585;DHT22;6863;48.402;9.994;2023-08-21T09:18:55;46.50;37.10
13585;DHT22;6863;48.402;9.994;2023-08-21T09:21:25;47.10;35.40
13585;DHT22;6863;48.402;9.994;2023-08-21T09:23:58;47.50;34.20
13585;DHT22;6863;48.402;9.994;2023-08-21T09:26:24;47.80;33.60
13585;DHT22;6863;48.402;9.994;2023-08-21T09:28:51;47.80;33.30
13585;DHT22;6863;48.402;9.994;2023-08-21T09:31:31;47.90;32.90
13585;DHT22;6863;48.402;9.994;2023-08-21T09:33:58;47.30;33.60
13585;DHT22;6863;48.402;9.994;2023-08-21T09:36:24;48.00;32.60
13585;DHT22;6863;48.402;9.994;2023-08-21T09:38:51;48.50;31.50
13585;DHT22;6863;48.402;9.994;2023-08-21T09:41:22;48.80;30.80
13585;DHT22;6863;48.402;9.994;2023-08-21T09:43:48;49.20;30.40
13585;DHT22;6863;48.402;9.994;2023-08-21T09:46:23;49.60;29.70
13585;DHT22;6863;48.402;9.994;2023-08-21T09:48:49;49.70;29.70
13585;DHT22;6863;48.402;9.994;2023-08-21T09:51:16;50.20;28.90
13585;DHT22;6863;48.402;9.994;2023-08-21T09:53:42;50.30;28.90
13585;DHT22;6863;48.402;9.994;2023-08-21T09:56:08;50.30;28.60
13585;DHT22;6863;48.402;9.994;2023-08-21T09:58:35;50.90;28.00
13585;DHT22;6863;48.402;9.994;2023-08-21T10:01:05;50.90;27.80
13585;DHT22;6863;48.402;9.994;2023-08-21T10:03:38;50.30;28.60
13585;DHT22;6863;48.402;9.994;2023-08-21T10:06:04;50.60;28.00
13585;DHT22;6863;48.402;9.994;2023-08-21T10:08:32;51.00;27.80
13585;DHT22;6863;48.402;9.994;2023-08-21T10:10:58;51.80;26.90
13585;DHT22;6863;48.402;9.994;2023-08-21T10:13:25;51.90;26.90
13585;DHT22;6863;48.402;9.994;2023-08-21T10:15:51;52.20;26.70
13585;DHT22;6863;48.402;9.994;2023-08-21T10:18:19;52.50;26.50
13585;DHT22;6863;48.402;9.994;2023-08-21T10:20:45;53.20;25.70
13585;DHT22;6863;48.402;9.994;2023-08-21T10:23:27;53.00;25.70
13585;DHT22;6863;48.402;9.994;2023-08-21T10:25:57;53.30;25.20
13585;DHT22;6863;48.402;9.994;2023-08-21T10:28:23;53.10;24.90
13585;DHT22;6863;48.402;9.994;2023-08-21T10:30:52;53.20;24.80
13585;DHT22;6863;48.402;9.994;2023-08-21T10:33:50;53.20;24.90
13585;DHT22;6863;48.402;9.994;2023-08-21T10:39:24;52.80;24.80
13585;DHT22;6863;48.402;9.994;2023-08-21T10:42:11;52.90;24.80
13585;DHT22;6863;48.402;9.994;2023-08-21T10:45:10;53.40;24.00
13585;DHT22;6863;48.402;9.994;2023-08-21T10:47:35;53.40;23.70
13585;DHT22;6863;48.402;9.994;2023-08-21T10:50:06;53.60;24.20
13585;DHT22;6863;48.402;9.994;2023-08-21T10:52:40;53.90;23.70
13585;DHT22;6863;48.402;9.994;2023-08-21T10:57:36;54.80;23.00
13585;DHT22;6863;48.402;9.994;2023-08-21T11:00:07;54.80;22.80
13585;DHT22;6863;48.402;9.994;2023-08-21T11:02:39;53.90;22.80
13585;DHT22;6863;48.402;9.994;2023-08-21T11:05:05;53.10;23.80
13585;DHT22;6863;48.402;9.994;2023-08-21T11:07:37;52.80;24.70
13585;DHT22;6863;48.402;9.994;2023-08-21T11:10:06;52.30;25.00
13585;DHT22;6863;48.402;9.994;2023-08-21T11:12:31;52.70;24.50
13585;DHT22;6863;48.402;9.994;2023-08-21T11:14:57;53.00;24.40
13585;DHT22;6863;48.402;9.994;2023-08-21T11:17:22;53.30;24.00
13585;DHT22;6863;48.402;9.994;2023-08-21T11:19:51;53.60;23.70
13585;DHT22;6863;48.402;9.994;2023-08-21T11:22:17;54.00;23.60
13585;DHT22;6863;48.402;9.994;2023-08-21T11:24:47;53.80;23.70
13585;DHT22;6863;48.402;9.994;2023-08-21T11:27:16;54.30;22.90
13585;DHT22;6863;48.402;9.994;2023-08-21T11:29:44;54.70;22.80
13585;DHT22;6863;48.402;9.994;2023-08-21T11:32:30;54.50;22.80
13585;DHT22;6863;48.402;9.994;2023-08-21T11:34:56;55.10;22.10
13585;DHT22;6863;48.402;9.994;2023-08-21T11:37:26;53.90;22.60
13585;DHT22;6863;48.402;9.994;2023-08-21T11:39:57;53.70;23.00
13585;DHT22;6863;48.402;9.994;2023-08-21T11:42:29;53.40;23.40
13585;DHT22;6863;48.402;9.994;2023-08-21T11:44:55;53.50;23.10
13585;DHT22;6863;48.402;9.994;2023-08-21T11:47:22;53.30;23.20
13585;DHT22;6863;48.402;9.994;2023-08-21T11:49:49;54.20;22.50
13585;DHT22;6863;48.402;9.994;2023-08-21T11:52:23;54.40;22.50
13585;DHT22;6863;48.402;9.994;2023-08-21T11:54:53;54.30;22.50
13585;DHT22;6863;48.402;9.994;2023-08-21T11:57:20;54.80;22.20
13585;DHT22;6863;48.402;9.994;2023-08-21T11:59:56;54.70;22.40
13585;DHT22;6863;48.402;9.994;2023-08-21T12:05:05;53.50;22.90
13585;DHT22;6863;48.402;9.994;2023-08-21T12:07:31;54.00;22.70
13585;DHT22;6863;48.402;9.994;2023-08-21T12:09:57;53.90;22.70
13585;DHT22;6863;48.402;9.994;2023-08-21T12:12:23;54.10;22.80
13585;DHT22;6863;48.402;9.994;2023-08-21T12:14:49;54.80;22.30
13585;DHT22;6863;48.402;9.994;2023-08-21T12:17:14;54.00;22.30
13585;DHT22;6863;48.402;9.994;2023-08-21T12:19:40;51.80;23.90
13585;DHT22;6863;48.402;9.994;2023-08-21T12:22:07;51.40;24.20
13585;DHT22;6863;48.402;9.994;2023-08-21T12:24:33;50.70;24.50
13585;DHT22;6863;48.402;9.994;2023-08-21T12:26:59;47.20;27.30
13585;DHT22;6863;48.402;9.994;2023-08-21T12:29:26;45.10;29.10
13585;DHT22;6863;48.402;9.994;2023-08-21T12:31:52;44.50;29.80
13585;DHT22;6863;48.402;9.994;2023-08-21T12:34:19;43.80;30.40
13585;DHT22;6863;48.402;9.994;2023-08-21T12:36:45;42.70;32.20
13585;DHT22;6863;48.402;9.994;2023-08-21T12:39:11;42.30;32.60
13585;DHT22;6863;48.402;9.994;2023-08-21T12:41:36;42.00;33.10
13585;DHT22;6863;48.402;9.994;2023-08-21T12:44:02;41.40;34.20
13585;DHT22;6863;48.402;9.994;2023-08-21T12:46:29;41.00;35.10
13585;DHT22;6863;48.402;9.994;2023-08-21T12:48:58;39.70;37.30
13585;DHT22;6863;48.402;9.994;2023-08-21T12:51:24;39.10;38.20
13585;DHT22;6863;48.402;9.994;2023-08-21T12:53:50;39.40;38.00
13585;DHT22;6863;48.402;9.994;2023-08-21T12:56:28;39.50;37.60
13585;DHT22;6863;48.402;9.994;2023-08-21T12:58:53;41.50;35.70
13585;DHT22;6863;48.402;9.994;2023-08-21T13:01:19;44.40;31.60
13585;DHT22;6863;48.402;9.994;2023-08-21T13:03:45;47.10;28.60
13585;DHT22;6863;48.402;9.994;2023-08-21T13:06:12;48.40;27.50
13585;DHT22;6863;48.402;9.994;2023-08-21T13:08:37;48.80;27.00
13585;DHT22;6863;48.402;9.994;2023-08-21T13:11:03;48.70;26.90
13585;DHT22;6863;48.402;9.994;2023-08-21T13:13:30;49.60;26.00
13585;DHT22;6863;48.402;9.994;2023-08-21T13:15:56;50.70;25.00
13585;DHT22;6863;48.402;9.994;2023-08-21T13:18:21;51.30;24.40
13585;DHT22;6863;48.402;9.994;2023-08-21T13:20:47;50.20;25.40
13585;DHT22;6863;48.402;9.994;2023-08-21T13:23:13;49.20;26.00
13585;DHT22;6863;48.402;9.994;2023-08-21T13:25:38;48.10;27.20
13585;DHT22;6863;48.402;9.994;2023-08-21T13:28:04;48.00;27.20
13585;DHT22;6863;48.402;9.994;2023-08-21T13:30:30;48.80;26.50
13585;DHT22;6863;48.402;9.994;2023-08-21T13:32:59;49.90;25.90
13585;DHT22;6863;48.402;9.994;2023-08-21T13:35:24;50.00;25.50
13585;DHT22;6863;48.402;9.994;2023-08-21T13:37:50;49.10;25.90
13585;DHT22;6863;48.402;9.994;2023-08-21T13:40:16;48.10;26.50
13585;DHT22;6863;48.402;9.994;2023-08-21T13:42:48;47.50;27.00
13585;DHT22;6863;48.402;9.994;2023-08-21T13:45:15;47.30;27.40
13585;DHT22;6863;48.402;9.994;2023-08-21T13:47:43;48.20;26.50
13585;DHT22;6863;48.402;9.994;2023-08-21T13:50:10;48.80;26.10
13585;DHT22;6863;48.402;9.994;2023-08-21T13:52:36;49.90;25.50
13585;DHT22;6863;48.402;9.994;2023-08-21T13:57:30;51.70;24.80
13585;DHT22;6863;48.402;9.994;2023-08-21T14:00:00;52.40;23.70
13585;DHT22;6863;48.402;9.994;2023-08-21T14:02:26;51.50;24.20
13585;DHT22;6863;48.402;9.994;2023-08-21T14:04:52;50.90;24.60
13585;DHT22;6863;48.402;9.994;2023-08-21T14:07:17;50.90;24.60
13585;DHT22;6863;48.402;9.994;2023-08-21T14:09:43;51.10;24.40
13585;DHT22;6863;48.402;9.994;2023-08-21T14:12:09;50.10;25.20
13585;DHT22;6863;48.402;9.994;2023-08-21T14:14:37;50.20;25.00
13585;DHT22;6863;48.402;9.994;2023-08-21T14:17:03;49.10;25.90
13585;DHT22;6863;48.402;9.994;2023-08-21T14:19:30;48.50;26.50
13585;DHT22;6863;48.402;9.994;2023-08-21T14:21:58;48.40;26.70
13585;DHT22;6863;48.402;9.994;2023-08-21T14:24:24;48.30;26.80
13585;DHT22;6863;48.402;9.994;2023-08-21T14:26:49;48.50;26.70
13585;DHT22;6863;48.402;9.994;2023-08-21T14:29:15;49.00;26.50
13585;DHT22;6863;48.402;9.994;2023-08-21T14:31:40;48.30;27.20
13585;DHT22;6863;48.402;9.994;2023-08-21T14:34:06;47.20;27.90
13585;DHT22;6863;48.402;9.994;2023-08-21T14:36:31;45.40;29.40
13585;DHT22;6863;48.402;9.994;2023-08-21T14:38:58;43.80;31.20
13585;DHT22;6863;48.402;9.994;2023-08-21T14:41:24;42.50;32.80
13585;DHT22;6863;48.402;9.994;2023-08-21T14:43:50;41.50;34.60
13585;DHT22;6863;48.402;9.994;2023-08-21T14:46:15;40.90;36.00
13585;DHT22;6863;48.402;9.994;2023-08-21T14:48:41;40.00;37.20
13585;DHT22;6863;48.402;9.994;2023-08-21T14:51:06;39.40;38.20
13585;DHT22;6863;48.402;9.994;2023-08-21T14:53:32;39.00;38.90
13585;DHT22;6863;48.402;9.994;2023-08-21T14:55:58;38.50;39.60
13585;DHT22;6863;48.402;9.994;2023-08-21T14:58:24;38.10;40.00
13585;DHT22;6863;48.402;9.994;2023-08-21T15:00:52;37.70;40.80
13585;DHT22;6863;48.402;9.994;2023-08-21T15:03:18;37.40;41.40
13585;DHT22;6863;48.402;9.994;2023-08-21T15:05:43;37.10;41.80
13585;DHT22;6863;48.402;9.994;2023-08-21T15:08:09;37.00;42.20
13585;DHT22;6863;48.402;9.994;2023-08-21T15:10:35;37.00;42.60
13585;DHT22;6863;48.402;9.994;2023-08-21T15:13:01;37.00;42.40
13585;DHT22;6863;48.402;9.994;2023-08-21T15:15:26;37.00;42.40
13585;DHT22;6863;48.402;9.994;2023-08-21T15:17:52;37.40;42.30
13585;DHT22;6863;48.402;9.994;2023-08-21T15:20:17;38.00;40.70
13585;DHT22;6863;48.402;9.994;2023-08-21T15:22:43;38.10;40.60
13585;DHT22;6863;48.402;9.994;2023-08-21T15:25:09;38.10;40.90
13585;DHT22;6863;48.402;9.994;2023-08-21T15:27:35;37.90;40.90
13585;DHT22;6863;48.402;9.994;2023-08-21T15:30:01;37.70;41.00
13585;DHT22;6863;48.402;9.994;2023-08-21T15:32:27;37.50;41.50
13585;DHT22;6863;48.402;9.994;2023-08-21T15:34:53;37.20;41.40
13585;DHT22;6863;48.402;9.994;2023-08-21T15:37:19;36.90;42.20
13585;DHT22;6863;48.402;9.994;2023-08-21T15:39:44;36.80;43.10
13585;DHT22;6863;48.402;9.994;2023-08-21T15:42:10;36.60;43.40
13585;DHT22;6863;48.402;9.994;2023-08-21T15:44:35;36.50;43.30
13585;DHT22;6863;48.402;9.994;2023-08-21T15:47:01;36.70;43.20
13585;DHT22;6863;48.402;9.994;2023-08-21T15:49:26;37.00;43.30
13585;DHT22;6863;48.402;9.994;2023-08-21T15:51:52;37.30;42.80
13585;DHT22;6863;48.402;9.994;2023-08-21T15:54:19;37.40;42.30